Hlavní strana
METAR-TAF:

METAR-TAF

Letiště :

Kostanay, Kazachstán

zeměpisná šířka: 53-12-23N, zeměpisná délka: 063-33-03E, výška: 182 m

Aktuální stav počasí

Zpráva byla vytvořena před 19 minutami, v 12:00 UTC
Západní vítr 14 kt
Teplota 18°C
Vlhkost vzduchu 16%
Tlak 1013 hPa
Viditelnost 10 km a více
Oblačno až skoro zataženo ve výšce 4600 ft, Cumulonimbus.

METAR: UAUU 231200Z 26007MPS 9999 BKN046CB 18/M08 Q1013 R33/CLRD70 NOSIG RMK QFE744/0992

Čas: 18:19 (12:19 UTC)

Předpověď počasí

Zpráva byla vytvořena před 1 hodinou a 19 minutami, v 11:00 UTC
Předpověď platná od 23 v 12 UTC do 23 v 21 UTC
Západní vítr 10 kt
Viditelnost 10 km a více
Oblačno až skoro zataženo ve výšce 2000 ft, Cumulonimbus.
Dočasný
od 23 v 12 UTC do 23 v 15 UTC
Západní vítr 12 kt s nárazy do 21 kt
Změna
od 23 v 15 UTC do 23 v 16 UTC
Západní vítr 6 kt s nárazy do 16 kt

TAF: UAUU 231100Z 2312/2321 26005MPS 9999 BKN020CB TEMPO 2312/2315 26006G11MPS BECMG 2315/2316 27003G08MPS

Stav a předpovědi počasí z více než 4 000 letišť (zprávy METAR a TAF).

Červené a žluté tečky na mapě představují dostupné meteorologické stanice.

Když kurzor umístíte na tečku, zobrazí se název stanice.

Pak kliknutím zobrazíte stav a předpověď počasí.

Chcete-li změnit mapu, kliknutím na zelené tlačítko se znaménkem +mapu přiblížíte, kliknutím na zelené tlačítko se znaménkem – mapu oddálíte a kliknutím na zelené šipky přejdete na sousední mapy.


METAR-TAF: